Time;durP1;ratioP1;P1;durP2;ratioP2;P2;SDS_P1;SDS_P2;PMS_P1;PMS_P2;Temp;Humidity;BMP_temperature;BMP_pressure;BME280_temperature;BME280_humidity;BME280_pressure;Samples;Min_cycle;Max_cycle;Signal;HPM_P1;HPM_P2
2023/12/11 00:01:44;;;;;;;5.43;2.10;;;;;;;;;;2610737;54;20376;-72
2023/12/11 00:04:11;;;;;;;15.00;3.43;;;;;;;;;;2609698;54;20437;-72
2023/12/11 00:06:37;;;;;;;6.33;1.90;;;;;;;;;;2610693;54;20430;-74
2023/12/11 00:09:03;;;;;;;10.60;2.80;;;;;;;;;;2609923;54;20454;-77
2023/12/11 00:11:29;;;;;;;9.00;3.03;;;;;;;;;;2610777;54;20416;-74
2023/12/11 00:13:55;;;;;;;10.53;3.40;;;;;;;;;;2610827;47;20438;-74
2023/12/11 00:16:21;;;;;;;12.53;3.03;;;;;;;;;;2611232;54;20435;-83
2023/12/11 00:18:48;;;;;;;14.13;3.10;;;;;;;;;;2612338;47;20462;-83
2023/12/11 00:21:15;;;;;;;19.73;3.90;;;;;;;;;;2611551;47;20430;-80
2023/12/11 00:23:41;;;;;;;20.27;4.37;;;;;;;;;;2612428;54;20427;-83
2023/12/11 00:26:08;;;;;;;20.53;4.67;;;;;;;;;;2612612;54;20429;-82
2023/12/11 00:28:34;;;;;;;12.17;3.50;;;;;;;;;;2613050;54;20423;-82
2023/12/11 00:31:01;;;;;;;14.93;4.67;;;;;;;;;;2613631;54;20429;-83
2023/12/11 00:33:28;;;;;;;13.87;4.30;;;;;;;;;;2612572;47;20447;-82
2023/12/11 00:35:54;;;;;;;4.77;2.20;;;;;;;;;;2613470;39;20885;-80
2023/12/11 00:38:20;;;;;;;16.67;3.17;;;;;;;;;;2613206;54;20489;-80
2023/12/11 00:40:46;;;;;;;9.47;3.17;;;;;;;;;;2613783;47;20421;-82
2023/12/11 00:43:12;;;;;;;11.30;2.87;;;;;;;;;;2613418;54;20430;-81
2023/12/11 00:45:38;;;;;;;10.97;3.60;;;;;;;;;;2612506;54;20468;-81
2023/12/11 00:48:04;;;;;;;7.80;2.90;;;;;;;;;;2613145;54;20406;-81
2023/12/11 00:50:30;;;;;;;16.67;3.07;;;;;;;;;;2613179;54;20530;-79
2023/12/11 00:52:56;;;;;;;12.40;4.00;;;;;;;;;;2613109;54;20410;-77
2023/12/11 00:55:22;;;;;;;12.80;6.50;;;;;;;;;;2613383;54;20391;-82
2023/12/11 00:57:49;;;;;;;15.60;4.90;;;;;;;;;;2612203;54;20430;-80
2023/12/11 01:00:15;;;;;;;18.00;5.27;;;;;;;;;;2612794;54;20513;-82
2023/12/11 01:02:42;;;;;;;18.30;3.50;;;;;;;;;;2612411;54;20406;-82
2023/12/11 01:05:09;;;;;;;12.33;4.67;;;;;;;;;;2612817;47;20410;-79
2023/12/11 01:07:35;;;;;;;26.40;4.90;;;;;;;;;;2613306;54;20539;-80
2023/12/11 01:10:01;;;;;;;12.10;3.17;;;;;;;;;;2614465;54;20477;-79
2023/12/11 01:12:27;;;;;;;24.03;4.00;;;;;;;;;;2614640;54;20419;-80
2023/12/11 01:14:53;;;;;;;16.90;4.10;;;;;;;;;;2612973;54;20429;-81
2023/12/11 01:17:19;;;;;;;22.33;4.87;;;;;;;;;;2613603;54;20446;-79
2023/12/11 01:19:45;;;;;;;13.93;4.10;;;;;;;;;;2613110;47;20448;-81
2023/12/11 01:22:12;;;;;;;15.03;3.57;;;;;;;;;;2613160;54;20417;-82
2023/12/11 01:24:38;;;;;;;12.60;3.50;;;;;;;;;;2613092;54;20866;-83
2023/12/11 01:27:04;;;;;;;18.10;4.90;;;;;;;;;;2612974;54;20423;-79
2023/12/11 01:29:30;;;;;;;16.47;4.43;;;;;;;;;;2613367;39;20821;-78
2023/12/11 01:31:57;;;;;;;16.93;5.00;;;;;;;;;;2611943;54;20449;-78
2023/12/11 01:34:23;;;;;;;17.10;4.40;;;;;;;;;;2611888;47;21006;-80
2023/12/11 01:36:49;;;;;;;13.90;3.10;;;;;;;;;;2612039;54;20974;-80
2023/12/11 01:39:15;;;;;;;17.90;5.80;;;;;;;;;;2612800;46;20999;-80
2023/12/11 01:41:41;;;;;;;28.40;5.57;;;;;;;;;;2612572;47;20441;-79
2023/12/11 01:44:07;;;;;;;15.70;4.30;;;;;;;;;;2613454;54;20518;-78
2023/12/11 01:46:33;;;;;;;33.83;5.80;;;;;;;;;;2612643;54;20393;-78
2023/12/11 01:48:59;;;;;;;16.10;4.80;;;;;;;;;;2612116;47;20461;-80
2023/12/11 01:51:26;;;;;;;21.67;5.70;;;;;;;;;;2612579;54;20504;-80
2023/12/11 01:53:52;;;;;;;16.43;5.03;;;;;;;;;;2612581;54;20425;-79
2023/12/11 01:56:19;;;;;;;10.60;3.00;;;;;;;;;;2612220;47;20434;-80
2023/12/11 01:58:45;;;;;;;13.60;3.70;;;;;;;;;;2613807;54;20424;-80
2023/12/11 02:01:12;;;;;;;12.70;3.60;;;;;;;;;;2612310;54;20411;-80
2023/12/11 02:03:39;;;;;;;17.23;4.43;;;;;;;;;;2613249;54;20417;-81
2023/12/11 02:06:05;;;;;;;16.27;3.90;;;;;;;;;;2612325;47;20441;-81
2023/12/11 02:08:31;;;;;;;16.33;5.90;;;;;;;;;;2612733;54;20403;-80
2023/12/11 02:10:57;;;;;;;17.93;4.70;;;;;;;;;;2613496;47;20481;-80
2023/12/11 02:13:23;;;;;;;22.80;5.00;;;;;;;;;;2612795;39;20874;-80
2023/12/11 02:15:50;;;;;;;10.17;3.00;;;;;;;;;;2612642;54;20421;-81
2023/12/11 02:18:17;;;;;;;10.77;3.80;;;;;;;;;;2611599;54;20521;-80
2023/12/11 02:20:43;;;;;;;20.10;4.37;;;;;;;;;;2613298;39;20771;-80
2023/12/11 02:23:21;;;;;;;19.70;6.30;;;;;;;;;;2611366;54;20990;-79
2023/12/11 02:25:55;;;;;;;16.60;3.83;;;;;;;;;;2613018;54;20489;-70
2023/12/11 02:28:21;;;;;;;16.60;4.67;;;;;;;;;;2610248;54;20516;-71
2023/12/11 02:30:51;;;;;;;22.60;4.57;;;;;;;;;;2611478;54;20386;-72
2023/12/11 02:33:17;;;;;;;9.30;3.83;;;;;;;;;;2609087;54;20419;-70
2023/12/11 02:35:43;;;;;;;10.93;4.17;;;;;;;;;;2610314;54;20434;-80
2023/12/11 02:38:10;;;;;;;17.50;4.50;;;;;;;;;;2612202;54;20982;-81
2023/12/11 02:40:36;;;;;;;18.03;4.67;;;;;;;;;;2612345;39;20916;-81
2023/12/11 02:43:02;;;;;;;18.80;3.20;;;;;;;;;;2612377;39;20941;-81
2023/12/11 02:45:28;;;;;;;20.23;5.27;;;;;;;;;;2611346;54;20412;-78
2023/12/11 02:48:02;;;;;;;15.37;5.00;;;;;;;;;;2611675;54;20506;-79
2023/12/11 02:50:28;;;;;;;13.40;2.57;;;;;;;;;;2610846;54;20422;-81
2023/12/11 02:52:54;;;;;;;12.97;3.07;;;;;;;;;;2612267;39;20775;-78
2023/12/11 02:55:20;;;;;;;23.70;4.17;;;;;;;;;;2610719;54;21139;-79
2023/12/11 02:57:46;;;;;;;36.73;5.70;;;;;;;;;;2611453;54;20412;-80
2023/12/11 03:00:12;;;;;;;16.73;4.30;;;;;;;;;;2612770;39;20824;-80
2023/12/11 03:02:38;;;;;;;15.83;4.20;;;;;;;;;;2612792;54;20416;-81
2023/12/11 03:05:05;;;;;;;18.17;3.90;;;;;;;;;;2611984;54;20457;-79
2023/12/11 03:07:31;;;;;;;12.73;4.07;;;;;;;;;;2611995;54;20594;-78
2023/12/11 03:09:57;;;;;;;11.33;3.43;;;;;;;;;;2612974;39;20705;-81
2023/12/11 03:12:23;;;;;;;18.43;3.77;;;;;;;;;;2612399;54;20423;-78
2023/12/11 03:14:49;;;;;;;25.03;5.20;;;;;;;;;;2610806;54;20393;-77
2023/12/11 03:17:15;;;;;;;7.30;2.40;;;;;;;;;;2611008;54;20451;-82
2023/12/11 03:19:43;;;;;;;15.17;4.23;;;;;;;;;;2611420;47;20863;-80
2023/12/11 03:22:09;;;;;;;10.63;3.30;;;;;;;;;;2611093;54;20423;-81
2023/12/11 03:24:35;;;;;;;17.93;5.13;;;;;;;;;;2611146;54;20427;-81
2023/12/11 03:27:01;;;;;;;13.33;4.97;;;;;;;;;;2612015;54;20399;-80
2023/12/11 03:29:27;;;;;;;20.93;5.20;;;;;;;;;;2612562;54;20440;-80
2023/12/11 03:31:53;;;;;;;12.63;4.30;;;;;;;;;;2612259;54;20475;-79
2023/12/11 03:34:19;;;;;;;16.13;3.37;;;;;;;;;;2613187;54;20519;-78
2023/12/11 03:36:45;;;;;;;17.97;4.50;;;;;;;;;;2610325;54;20546;-75
2023/12/11 03:39:11;;;;;;;17.27;4.07;;;;;;;;;;2610347;54;20427;-74
2023/12/11 03:41:39;;;;;;;11.67;3.30;;;;;;;;;;2609854;54;20522;-75
2023/12/11 03:44:05;;;;;;;19.90;4.20;;;;;;;;;;2611737;54;20820;-74
2023/12/11 03:46:31;;;;;;;14.70;4.50;;;;;;;;;;2611882;39;20852;-80
2023/12/11 03:48:57;;;;;;;10.17;3.17;;;;;;;;;;2613158;39;20787;-79
2023/12/11 03:51:23;;;;;;;7.73;3.93;;;;;;;;;;2611401;54;20579;-77
2023/12/11 03:53:49;;;;;;;6.00;1.57;;;;;;;;;;2610909;39;20789;-77
2023/12/11 03:56:15;;;;;;;4.10;2.00;;;;;;;;;;2610580;54;20906;-78
2023/12/11 03:58:41;;;;;;;13.80;3.37;;;;;;;;;;2609780;54;20436;-78
2023/12/11 04:01:07;;;;;;;12.60;4.17;;;;;;;;;;2610438;54;20431;-77
2023/12/11 04:03:33;;;;;;;7.10;2.70;;;;;;;;;;2611336;54;20428;-77
2023/12/11 04:05:59;;;;;;;14.70;3.10;;;;;;;;;;2612099;39;20941;-78
2023/12/11 04:08:25;;;;;;;30.83;6.60;;;;;;;;;;2611331;54;20403;-77
2023/12/11 04:10:51;;;;;;;20.43;3.70;;;;;;;;;;2611955;54;20487;-79
2023/12/11 04:13:18;;;;;;;25.83;4.63;;;;;;;;;;2611797;54;20554;-78
2023/12/11 04:15:44;;;;;;;10.17;2.80;;;;;;;;;;2612082;54;20433;-78
2023/12/11 04:18:10;;;;;;;17.47;5.07;;;;;;;;;;2612593;54;20435;-79
2023/12/11 04:20:36;;;;;;;13.60;3.97;;;;;;;;;;2613102;47;20510;-79
2023/12/11 04:23:02;;;;;;;22.20;4.83;;;;;;;;;;2613174;54;20411;-80
2023/12/11 04:25:28;;;;;;;12.33;3.23;;;;;;;;;;2611839;54;20402;-79
2023/12/11 04:27:54;;;;;;;8.60;2.53;;;;;;;;;;2612337;54;20411;-79
2023/12/11 04:30:20;;;;;;;15.20;4.10;;;;;;;;;;2613455;54;20501;-78
2023/12/11 04:32:46;;;;;;;13.93;4.17;;;;;;;;;;2613855;39;20791;-78
2023/12/11 04:35:12;;;;;;;10.10;2.90;;;;;;;;;;2613253;54;20446;-78
2023/12/11 04:37:38;;;;;;;18.83;3.77;;;;;;;;;;2612943;54;20438;-80
2023/12/11 04:40:05;;;;;;;16.00;4.17;;;;;;;;;;2612570;39;20786;-78
2023/12/11 04:42:31;;;;;;;16.10;2.93;;;;;;;;;;2613729;54;20449;-78
2023/12/11 04:44:57;;;;;;;17.33;3.60;;;;;;;;;;2612924;47;20454;-76
2023/12/11 04:47:23;;;;;;;3.37;1.87;;;;;;;;;;2614309;54;20427;-83
2023/12/11 04:49:49;;;;;;;13.13;3.27;;;;;;;;;;2615514;39;20834;-84
2023/12/11 04:52:17;;;;;;;12.97;3.83;;;;;;;;;;2614174;54;20420;-82
2023/12/11 04:54:43;;;;;;;8.00;2.77;;;;;;;;;;2613316;54;20423;-83
2023/12/11 04:57:09;;;;;;;11.63;2.87;;;;;;;;;;2612161;54;20418;-78
2023/12/11 04:59:35;;;;;;;8.90;3.07;;;;;;;;;;2612428;54;20449;-80
2023/12/11 05:02:01;;;;;;;6.83;2.73;;;;;;;;;;2612184;47;21030;-78
2023/12/11 05:04:27;;;;;;;11.17;3.00;;;;;;;;;;2612512;54;20423;-80
2023/12/11 05:06:53;;;;;;;16.60;4.20;;;;;;;;;;2608439;54;20422;-80
2023/12/11 05:09:19;;;;;;;13.03;4.10;;;;;;;;;;2607857;54;21053;-78
2023/12/11 05:11:45;;;;;;;9.73;3.00;;;;;;;;;;2608891;47;20545;-74
2023/12/11 05:14:11;;;;;;;6.27;2.60;;;;;;;;;;2610044;39;20835;-78
2023/12/11 05:16:37;;;;;;;17.03;3.70;;;;;;;;;;2607919;47;20503;-78
2023/12/11 05:19:03;;;;;;;14.90;3.17;;;;;;;;;;2606424;54;20881;-74
2023/12/11 05:21:29;;;;;;;9.83;1.93;;;;;;;;;;2608198;47;20967;-77
2023/12/11 05:23:56;;;;;;;13.40;2.97;;;;;;;;;;2608936;47;20432;-76
2023/12/11 05:26:22;;;;;;;7.47;3.00;;;;;;;;;;2612617;54;20944;-78
2023/12/11 05:28:48;;;;;;;13.33;2.37;;;;;;;;;;2612413;54;20435;-77
2023/12/11 05:31:15;;;;;;;10.03;3.13;;;;;;;;;;2613247;47;21017;-76
2023/12/11 05:33:41;;;;;;;7.80;4.10;;;;;;;;;;2612322;47;20465;-77
2023/12/11 05:36:08;;;;;;;8.90;2.70;;;;;;;;;;2613021;54;20412;-78
2023/12/11 05:38:34;;;;;;;11.37;3.47;;;;;;;;;;2613072;47;20544;-78
2023/12/11 05:41:00;;;;;;;5.20;2.27;;;;;;;;;;2613476;39;20905;-77
2023/12/11 05:43:26;;;;;;;7.67;2.40;;;;;;;;;;2612395;54;20396;-77
2023/12/11 05:45:52;;;;;;;6.90;2.73;;;;;;;;;;2612605;54;20494;-77
2023/12/11 05:48:18;;;;;;;9.50;2.40;;;;;;;;;;2613083;46;20468;-77
2023/12/11 05:50:45;;;;;;;5.97;2.23;;;;;;;;;;2613736;39;20795;-77
2023/12/11 05:53:11;;;;;;;8.03;2.13;;;;;;;;;;2613577;54;20427;-76
2023/12/11 05:55:37;;;;;;;10.17;2.60;;;;;;;;;;2613890;54;20472;-74
2023/12/11 05:58:03;;;;;;;13.73;4.03;;;;;;;;;;2612168;54;20406;-74
2023/12/11 06:00:29;;;;;;;17.37;2.53;;;;;;;;;;2611774;54;20410;-73
2023/12/11 06:02:55;;;;;;;12.00;3.67;;;;;;;;;;2612560;54;20932;-76
2023/12/11 06:05:21;;;;;;;13.27;3.67;;;;;;;;;;2610868;54;20430;-76
2023/12/11 06:07:47;;;;;;;15.77;3.30;;;;;;;;;;2612818;54;20438;-74
2023/12/11 06:10:13;;;;;;;15.87;3.50;;;;;;;;;;2612328;54;20395;-74
2023/12/11 06:12:39;;;;;;;8.80;3.43;;;;;;;;;;2612273;54;20395;-74
2023/12/11 06:15:05;;;;;;;7.60;2.57;;;;;;;;;;2612058;54;20425;-75
2023/12/11 06:17:31;;;;;;;11.70;3.57;;;;;;;;;;2611649;54;20458;-74
2023/12/11 06:19:57;;;;;;;6.63;3.50;;;;;;;;;;2611816;47;20438;-73
2023/12/11 06:22:23;;;;;;;23.13;5.47;;;;;;;;;;2610969;54;20446;-73
2023/12/11 06:24:49;;;;;;;8.93;2.60;;;;;;;;;;2611717;47;20422;-74
2023/12/11 06:27:16;;;;;;;8.40;2.33;;;;;;;;;;2612701;54;20490;-74
2023/12/11 06:29:42;;;;;;;9.33;3.57;;;;;;;;;;2611891;54;20543;-73
2023/12/11 06:32:11;;;;;;;16.20;3.87;;;;;;;;;;2612516;54;21027;-74
2023/12/11 06:34:37;;;;;;;7.13;2.77;;;;;;;;;;2612039;54;20412;-74
2023/12/11 06:37:03;;;;;;;19.40;4.57;;;;;;;;;;2611387;54;20433;-75
2023/12/11 06:39:29;;;;;;;11.27;3.17;;;;;;;;;;2612166;54;21046;-73
2023/12/11 06:41:55;;;;;;;8.93;3.63;;;;;;;;;;2610568;54;20976;-74
2023/12/11 06:44:21;;;;;;;7.10;2.73;;;;;;;;;;2612796;39;20802;-73
2023/12/11 06:46:47;;;;;;;12.37;4.20;;;;;;;;;;2612419;54;20407;-72
2023/12/11 06:49:13;;;;;;;17.13;3.80;;;;;;;;;;2611819;54;20468;-73
2023/12/11 06:51:39;;;;;;;10.03;2.67;;;;;;;;;;2611284;54;20502;-73
2023/12/11 06:54:05;;;;;;;8.27;2.43;;;;;;;;;;2611978;47;20438;-74
2023/12/11 06:56:32;;;;;;;11.97;3.80;;;;;;;;;;2612301;54;20560;-73
2023/12/11 06:58:58;;;;;;;7.73;3.30;;;;;;;;;;2610502;39;20847;-74
2023/12/11 07:01:30;;;;;;;16.73;4.40;;;;;;;;;;2608391;54;20448;-74
2023/12/11 07:03:57;;;;;;;8.20;2.97;;;;;;;;;;2612084;54;20494;-73
2023/12/11 07:06:23;;;;;;;7.50;2.73;;;;;;;;;;2612516;47;20393;-82
2023/12/11 07:08:49;;;;;;;5.10;3.30;;;;;;;;;;2613884;54;20446;-84
2023/12/11 07:11:15;;;;;;;13.60;3.47;;;;;;;;;;2613177;54;20421;-82
2023/12/11 07:13:42;;;;;;;7.63;2.67;;;;;;;;;;2613113;54;20418;-84
2023/12/11 07:16:08;;;;;;;13.03;2.83;;;;;;;;;;2613045;54;20471;-71
2023/12/11 07:18:34;;;;;;;7.97;3.10;;;;;;;;;;2611637;54;20427;-72
2023/12/11 07:21:01;;;;;;;13.33;3.80;;;;;;;;;;2612496;54;20414;-72
2023/12/11 07:23:27;;;;;;;9.47;2.83;;;;;;;;;;2611462;54;20450;-72
2023/12/11 07:25:53;;;;;;;10.80;3.50;;;;;;;;;;2611161;54;20455;-71
2023/12/11 07:28:19;;;;;;;7.20;2.43;;;;;;;;;;2611868;54;20430;-72
2023/12/11 07:30:45;;;;;;;11.47;3.60;;;;;;;;;;2612389;39;20822;-72
2023/12/11 07:33:11;;;;;;;18.53;3.57;;;;;;;;;;2612687;39;20805;-72
2023/12/11 07:35:37;;;;;;;9.83;3.20;;;;;;;;;;2611964;54;20427;-71
2023/12/11 07:38:03;;;;;;;13.60;3.83;;;;;;;;;;2612488;54;20421;-71
2023/12/11 07:40:30;;;;;;;7.17;3.37;;;;;;;;;;2612158;54;20437;-72
2023/12/11 07:42:56;;;;;;;11.63;3.63;;;;;;;;;;2612443;54;20415;-72
2023/12/11 07:45:25;;;;;;;14.60;4.00;;;;;;;;;;2612486;54;20427;-71
2023/12/11 07:47:51;;;;;;;10.33;2.97;;;;;;;;;;2611902;39;20836;-72
2023/12/11 07:50:17;;;;;;;20.80;6.43;;;;;;;;;;2612594;47;20430;-71
2023/12/11 07:52:43;;;;;;;9.17;3.80;;;;;;;;;;2612029;54;20490;-72
2023/12/11 07:55:09;;;;;;;6.50;2.70;;;;;;;;;;2613122;54;20572;-71
2023/12/11 07:57:35;;;;;;;11.67;2.47;;;;;;;;;;2612958;39;20881;-72
2023/12/11 08:00:04;;;;;;;11.83;1.77;;;;;;;;;;2612156;54;20423;-71
2023/12/11 08:02:30;;;;;;;10.50;2.70;;;;;;;;;;2610282;54;21363;-72
2023/12/11 08:04:56;;;;;;;9.90;2.90;;;;;;;;;;2611966;39;20479;-72
2023/12/11 08:07:22;;;;;;;7.63;2.87;;;;;;;;;;2611099;54;20525;-72
2023/12/11 08:09:48;;;;;;;8.00;2.73;;;;;;;;;;2612610;54;21046;-72
2023/12/11 08:12:14;;;;;;;9.00;1.60;;;;;;;;;;2611657;39;20865;-71
2023/12/11 08:14:40;;;;;;;14.33;3.27;;;;;;;;;;2611519;54;20455;-71
2023/12/11 08:17:06;;;;;;;15.97;2.70;;;;;;;;;;2613460;47;21033;-79
2023/12/11 08:19:35;;;;;;;11.00;2.90;;;;;;;;;;2612393;39;20986;-78
2023/12/11 08:22:01;;;;;;;6.07;2.50;;;;;;;;;;2613477;54;20419;-80
2023/12/11 08:24:27;;;;;;;7.00;2.93;;;;;;;;;;2611357;51;20442;-79
2023/12/11 08:26:54;;;;;;;6.60;2.10;;;;;;;;;;2612696;47;20434;-83
2023/12/11 08:29:23;;;;;;;21.30;4.17;;;;;;;;;;2611814;54;20538;-81
2023/12/11 08:31:50;;;;;;;8.37;2.57;;;;;;;;;;2614520;54;20426;-80
2023/12/11 08:34:18;;;;;;;7.03;2.90;;;;;;;;;;2613897;54;20386;-79
2023/12/11 08:36:44;;;;;;;9.63;2.80;;;;;;;;;;2612590;39;20804;-80
2023/12/11 08:39:11;;;;;;;19.07;3.80;;;;;;;;;;2611856;54;20468;-81
2023/12/11 08:41:37;;;;;;;7.43;2.50;;;;;;;;;;2612799;47;20510;-75
2023/12/11 08:44:03;;;;;;;18.70;4.03;;;;;;;;;;2612160;54;20421;-78
2023/12/11 08:46:31;;;;;;;8.60;1.93;;;;;;;;;;2612856;54;20424;-78
2023/12/11 08:48:57;;;;;;;15.60;3.63;;;;;;;;;;2612434;54;20479;-78
2023/12/11 08:51:23;;;;;;;8.17;4.17;;;;;;;;;;2612043;54;20400;-75
2023/12/11 08:53:49;;;;;;;14.57;4.93;;;;;;;;;;2612317;54;20468;-81
2023/12/11 08:56:15;;;;;;;13.20;4.00;;;;;;;;;;2612748;54;20435;-77
2023/12/11 08:58:41;;;;;;;7.13;2.40;;;;;;;;;;2612540;54;20477;-80
2023/12/11 09:01:08;;;;;;;6.50;2.13;;;;;;;;;;2613196;54;20496;-78
2023/12/11 09:03:35;;;;;;;7.90;2.60;;;;;;;;;;2613776;54;20513;-77
2023/12/11 09:06:01;;;;;;;15.57;4.13;;;;;;;;;;2613075;54;20453;-81
2023/12/11 09:08:28;;;;;;;11.23;4.93;;;;;;;;;;2612849;54;20438;-77
2023/12/11 09:10:55;;;;;;;3.53;2.23;;;;;;;;;;2612133;54;20428;-78
2023/12/11 09:13:22;;;;;;;9.93;2.50;;;;;;;;;;2612390;54;20420;-79
2023/12/11 09:15:49;;;;;;;12.70;2.70;;;;;;;;;;2612306;39;20625;-77
2023/12/11 09:18:15;;;;;;;8.00;2.03;;;;;;;;;;2612392;54;21131;-78
2023/12/11 09:20:41;;;;;;;4.27;2.23;;;;;;;;;;2613253;54;20441;-78
2023/12/11 09:23:09;;;;;;;6.10;2.30;;;;;;;;;;2612753;47;20422;-78
2023/12/11 09:25:35;;;;;;;18.83;4.43;;;;;;;;;;2612159;54;20420;-76
2023/12/11 09:28:02;;;;;;;9.13;2.10;;;;;;;;;;2611731;54;20422;-77
2023/12/11 09:30:28;;;;;;;7.93;3.00;;;;;;;;;;2612425;47;20610;-77
2023/12/11 09:32:54;;;;;;;13.93;2.07;;;;;;;;;;2612831;54;20438;-77
2023/12/11 09:35:20;;;;;;;10.20;3.33;;;;;;;;;;2612421;54;20831;-76
2023/12/11 09:37:46;;;;;;;21.10;3.67;;;;;;;;;;2613918;39;20866;-81
2023/12/11 09:40:13;;;;;;;8.70;2.67;;;;;;;;;;2613099;47;20435;-80
2023/12/11 09:42:41;;;;;;;7.77;2.90;;;;;;;;;;2613020;47;20386;-80
2023/12/11 09:45:08;;;;;;;5.13;2.00;;;;;;;;;;2613559;54;20407;-80
2023/12/11 09:47:47;;;;;;;7.53;3.33;;;;;;;;;;2612081;54;20522;-80
2023/12/11 09:50:13;;;;;;;8.33;3.07;;;;;;;;;;2612957;54;20453;-80
2023/12/11 09:52:42;;;;;;;7.30;2.50;;;;;;;;;;2613345;54;20409;-79
2023/12/11 09:55:09;;;;;;;13.13;3.70;;;;;;;;;;2612725;46;20472;-81
2023/12/11 09:57:35;;;;;;;5.60;2.43;;;;;;;;;;2612728;54;20826;-76
2023/12/11 10:00:03;;;;;;;7.50;3.23;;;;;;;;;;2613035;54;20439;-79
2023/12/11 10:02:29;;;;;;;10.73;2.60;;;;;;;;;;2613408;54;20411;-80
2023/12/11 10:05:02;;;;;;;16.90;3.17;;;;;;;;;;2613609;54;20414;-78
2023/12/11 10:07:28;;;;;;;9.67;2.53;;;;;;;;;;2613010;54;20421;-78
2023/12/11 10:09:54;;;;;;;10.03;2.80;;;;;;;;;;2613578;47;20434;-78
2023/12/11 10:12:20;;;;;;;17.57;3.00;;;;;;;;;;2613506;54;20467;-79
2023/12/11 10:15:12;;;;;;;6.97;2.60;;;;;;;;;;2612883;54;20435;-77
2023/12/11 10:17:38;;;;;;;10.30;3.60;;;;;;;;;;2611918;54;20471;-80
2023/12/11 10:20:17;;;;;;;10.10;3.63;;;;;;;;;;2612683;54;20409;-78
2023/12/11 10:22:43;;;;;;;11.73;2.60;;;;;;;;;;2613274;54;20427;-79
2023/12/11 10:25:09;;;;;;;11.60;1.77;;;;;;;;;;2613463;54;20423;-77
2023/12/11 10:27:35;;;;;;;12.57;2.80;;;;;;;;;;2613296;39;20491;-78
2023/12/11 10:30:12;;;;;;;7.40;2.40;;;;;;;;;;2612554;54;20424;-79
2023/12/11 10:32:38;;;;;;;4.30;2.70;;;;;;;;;;2612481;54;20538;-78
2023/12/11 10:35:05;;;;;;;4.70;2.23;;;;;;;;;;2612099;47;20433;-78
2023/12/11 10:37:31;;;;;;;9.00;2.27;;;;;;;;;;2615921;39;20905;-87
2023/12/11 10:39:57;;;;;;;7.00;2.60;;;;;;;;;;2616089;54;20401;-86
2023/12/11 10:42:26;;;;;;;6.40;2.97;;;;;;;;;;2617141;39;20900;-89
2023/12/11 10:44:53;;;;;;;19.93;2.00;;;;;;;;;;2615267;31;20993;-87
2023/12/11 10:47:19;;;;;;;8.33;2.50;;;;;;;;;;2614641;54;20983;-81
2023/12/11 10:49:46;;;;;;;4.63;1.70;;;;;;;;;;2613497;54;20415;-81
2023/12/11 10:52:13;;;;;;;4.13;2.23;;;;;;;;;;2613882;47;20427;-81
2023/12/11 10:54:42;;;;;;;3.57;2.13;;;;;;;;;;2613512;47;20444;-81
2023/12/11 10:57:11;;;;;;;5.30;2.53;;;;;;;;;;2614260;47;20481;-81
2023/12/11 10:59:38;;;;;;;3.20;1.60;;;;;;;;;;2614220;54;20404;-83
2023/12/11 11:02:06;;;;;;;14.30;3.30;;;;;;;;;;2612416;54;20454;-83
2023/12/11 11:04:33;;;;;;;10.03;2.43;;;;;;;;;;2614334;54;20406;-82
2023/12/11 11:07:12;;;;;;;6.53;2.67;;;;;;;;;;2613783;54;20379;-83
2023/12/11 11:09:54;;;;;;;6.30;2.03;;;;;;;;;;2614192;39;20808;-83
2023/12/11 11:12:34;;;;;;;12.87;2.40;;;;;;;;;;2614305;54;20450;-82
2023/12/11 11:15:00;;;;;;;3.80;1.70;;;;;;;;;;2614329;51;20440;-83
2023/12/11 11:17:46;;;;;;;8.70;2.27;;;;;;;;;;2612758;47;20551;-82
2023/12/11 11:20:14;;;;;;;6.53;2.60;;;;;;;;;;2613522;49;20442;-82
2023/12/11 11:22:40;;;;;;;4.33;2.10;;;;;;;;;;2613825;47;20430;-82
2023/12/11 11:25:30;;;;;;;5.90;2.10;;;;;;;;;;2613376;54;20403;-83
2023/12/11 11:27:57;;;;;;;4.77;1.60;;;;;;;;;;2613261;47;20417;-83
2023/12/11 11:30:41;;;;;;;4.80;2.27;;;;;;;;;;2614646;39;20810;-83
2023/12/11 11:33:10;;;;;;;9.13;3.30;;;;;;;;;;2613662;54;20428;-84
2023/12/11 11:35:46;;;;;;;11.90;2.90;;;;;;;;;;2613960;47;20430;-84
2023/12/11 11:38:12;;;;;;;3.63;1.40;;;;;;;;;;2612598;54;20438;-82
2023/12/11 11:40:39;;;;;;;9.27;2.43;;;;;;;;;;2612414;54;20434;-82
2023/12/11 11:43:08;;;;;;;8.80;2.17;;;;;;;;;;2612582;47;21087;-82
2023/12/11 11:45:36;;;;;;;4.20;1.87;;;;;;;;;;2612622;54;21071;-87
2023/12/11 11:48:02;;;;;;;10.93;1.83;;;;;;;;;;2615629;54;20434;-86
2023/12/11 11:50:28;;;;;;;3.03;1.77;;;;;;;;;;2616155;54;20421;-87
2023/12/11 11:53:08;;;;;;;4.87;2.13;;;;;;;;;;2616318;54;20430;-87
2023/12/11 11:55:36;;;;;;;4.33;2.10;;;;;;;;;;2617178;54;20465;-71
2023/12/11 11:58:11;;;;;;;3.30;1.63;;;;;;;;;;2610408;54;20399;-71
2023/12/11 12:00:37;;;;;;;3.63;2.00;;;;;;;;;;2610879;54;20414;-70
2023/12/11 12:03:04;;;;;;;6.70;1.73;;;;;;;;;;2610004;54;20462;-71
2023/12/11 12:05:31;;;;;;;4.77;2.27;;;;;;;;;;2609627;54;20416;-70
2023/12/11 12:07:57;;;;;;;5.23;2.37;;;;;;;;;;2611214;54;20946;-70
2023/12/11 12:10:24;;;;;;;3.30;1.80;;;;;;;;;;2610179;54;20423;-69
2023/12/11 12:13:16;;;;;;;6.07;2.10;;;;;;;;;;2610854;54;20393;-70
2023/12/11 12:15:44;;;;;;;4.47;2.53;;;;;;;;;;2610547;54;20843;-70
2023/12/11 12:18:10;;;;;;;5.27;2.43;;;;;;;;;;2610885;54;20482;-71
2023/12/11 12:20:36;;;;;;;2.53;1.57;;;;;;;;;;2611288;47;20962;-71
2023/12/11 12:23:03;;;;;;;7.00;2.80;;;;;;;;;;2610683;47;20487;-70
2023/12/11 12:25:30;;;;;;;4.47;2.40;;;;;;;;;;2611512;54;20916;-70
2023/12/11 12:27:59;;;;;;;2.10;1.47;;;;;;;;;;2610882;54;20419;-70
2023/12/11 12:30:26;;;;;;;6.43;2.40;;;;;;;;;;2612106;50;20438;-71
2023/12/11 12:32:52;;;;;;;4.17;2.43;;;;;;;;;;2610559;47;20434;-71
2023/12/11 12:35:19;;;;;;;5.17;2.60;;;;;;;;;;2610895;54;20427;-71
2023/12/11 12:37:46;;;;;;;9.10;3.10;;;;;;;;;;2611543;54;20431;-70
2023/12/11 12:40:13;;;;;;;6.47;2.83;;;;;;;;;;2610835;54;20395;-71
2023/12/11 12:42:40;;;;;;;4.97;2.17;;;;;;;;;;2610483;54;20434;-70
2023/12/11 12:45:06;;;;;;;7.90;3.43;;;;;;;;;;2611964;54;20453;-71
2023/12/11 12:47:32;;;;;;;6.63;3.20;;;;;;;;;;2612232;47;20426;-71
2023/12/11 12:49:59;;;;;;;6.27;2.93;;;;;;;;;;2611096;54;20912;-71
2023/12/11 12:52:25;;;;;;;8.73;3.33;;;;;;;;;;2612699;39;20583;-72
2023/12/11 12:54:54;;;;;;;8.30;3.03;;;;;;;;;;2611566;54;20836;-71
2023/12/11 12:57:20;;;;;;;5.40;3.13;;;;;;;;;;2612091;47;20424;-74
2023/12/11 12:59:46;;;;;;;8.00;3.03;;;;;;;;;;2612399;54;20414;-74
2023/12/11 13:02:16;;;;;;;4.93;3.57;;;;;;;;;;2611054;54;20389;-74
2023/12/11 13:04:49;;;;;;;6.10;3.20;;;;;;;;;;2612938;54;20435;-75
2023/12/11 13:07:15;;;;;;;3.33;2.60;;;;;;;;;;2612279;46;20415;-77
2023/12/11 13:09:41;;;;;;;8.70;3.77;;;;;;;;;;2612508;54;20444;-75
2023/12/11 13:12:09;;;;;;;9.20;3.80;;;;;;;;;;2612761;54;21047;-78
2023/12/11 13:14:35;;;;;;;5.27;3.50;;;;;;;;;;2612629;54;20415;-76
2023/12/11 13:17:01;;;;;;;7.23;3.90;;;;;;;;;;2611398;54;21023;-77
2023/12/11 13:19:27;;;;;;;8.73;3.33;;;;;;;;;;2611975;54;20434;-77
2023/12/11 13:21:53;;;;;;;3.57;2.50;;;;;;;;;;2611369;54;20511;-77
2023/12/11 13:24:21;;;;;;;11.00;3.87;;;;;;;;;;2611839;54;20466;-76
2023/12/11 13:26:47;;;;;;;5.57;3.00;;;;;;;;;;2611994;54;20394;-77
2023/12/11 13:29:13;;;;;;;5.20;3.33;;;;;;;;;;2612102;54;20419;-77
2023/12/11 13:31:39;;;;;;;12.03;2.83;;;;;;;;;;2612040;54;20442;-77
2023/12/11 13:34:05;;;;;;;5.40;2.97;;;;;;;;;;2612222;47;20430;-77
2023/12/11 13:36:31;;;;;;;9.50;3.20;;;;;;;;;;2612134;54;20454;-77
2023/12/11 13:38:57;;;;;;;6.67;3.10;;;;;;;;;;2612272;39;20911;-77
2023/12/11 13:41:23;;;;;;;4.50;3.50;;;;;;;;;;2612243;54;20419;-76
2023/12/11 13:43:49;;;;;;;3.20;2.53;;;;;;;;;;2610896;54;20431;-77
2023/12/11 13:46:15;;;;;;;4.67;3.10;;;;;;;;;;2610729;54;20434;-77
2023/12/11 13:48:41;;;;;;;3.97;1.70;;;;;;;;;;2610438;54;20434;-78
2023/12/11 13:51:08;;;;;;;6.10;3.70;;;;;;;;;;2608455;54;20421;-78
2023/12/11 13:53:35;;;;;;;6.20;2.87;;;;;;;;;;2611044;54;20446;-77
2023/12/11 13:56:01;;;;;;;4.23;2.90;;;;;;;;;;2611435;54;20437;-76
2023/12/11 13:58:27;;;;;;;8.33;3.93;;;;;;;;;;2611959;39;20823;-77
2023/12/11 14:00:53;;;;;;;3.27;2.40;;;;;;;;;;2610621;54;20417;-77
2023/12/11 14:03:20;;;;;;;5.90;3.67;;;;;;;;;;2610372;54;20415;-77
2023/12/11 14:05:47;;;;;;;5.27;2.97;;;;;;;;;;2611454;47;20449;-76
2023/12/11 14:08:13;;;;;;;6.57;3.90;;;;;;;;;;2611458;54;20426;-75
2023/12/11 14:10:40;;;;;;;5.60;3.03;;;;;;;;;;2611685;54;20406;-75
2023/12/11 14:13:12;;;;;;;6.20;3.33;;;;;;;;;;2612041;47;20426;-76
2023/12/11 14:15:38;;;;;;;4.80;3.03;;;;;;;;;;2611425;54;20448;-71
2023/12/11 14:18:04;;;;;;;5.60;2.93;;;;;;;;;;2610507;54;20534;-72
2023/12/11 14:20:30;;;;;;;6.10;3.37;;;;;;;;;;2612410;47;20427;-71
2023/12/11 14:22:56;;;;;;;6.40;3.13;;;;;;;;;;2611498;54;20430;-71
2023/12/11 14:25:24;;;;;;;4.40;2.40;;;;;;;;;;2612354;54;20458;-71
2023/12/11 14:27:50;;;;;;;4.43;2.50;;;;;;;;;;2611114;54;21045;-70
2023/12/11 14:30:17;;;;;;;9.03;3.23;;;;;;;;;;2611002;54;20446;-71
2023/12/11 14:32:43;;;;;;;13.47;3.40;;;;;;;;;;2612132;39;20815;-73
2023/12/11 14:35:09;;;;;;;3.10;1.80;;;;;;;;;;2611662;54;20421;-71